Megan, Australia

12:28 PM AEST on May 26, 2017 (GMT +1000)
Dorrigo | | Change Station

Elev 2460 ft 30.34 °S, 152.71 °E | Updated 2 minutes ago

Clear
Clear
66.2 °F
Feels Like 66.2 °F
N
1.0
Wind Variable Wind from SSE
Gusts 4.0 mph

Today
High -- | Low -- °F
--% Chance of Precip.
Yesterday
High -- | Low -- °F
Precip. -- in
Pressure 30.12 in
Visibility 6.2 miles
Clouds
Dew Point 47 °F
Humidity 51%
Rainfall 0.00 in
Snow Depth Not available.
6:33 AM 4:58 PM
New Moon, 0% visible
METAR YCFS 260200Z AUTO 07006KT 9999 // NCD 20/12 Q1020 RF00.0/000.0
Pressure 30.12 in
Visibility 6.2 miles
Clouds
Dew Point 47 °F
Humidity 51%
Rainfall 0.00 in
Snow Depth Not available.
6:33 AM 4:58 PM
New Moon, 0% visible
METAR YCFS 260200Z AUTO 07006KT 9999 // NCD 20/12 Q1020 RF00.0/000.0

Get Severe Weather Alerts

Thanks for signing up!

Be on the lookout for a verification email in your inbox.

You'll start receiving the daily forecast at 6 AM.

×

10-Day Weather Forecast

×

Almanac

Astronomy

May. 26, 2017 Rise Set
Actual Time
Civil Twilight
Nautical Twilight
Astronomical Twilight
Moon
Length of Visible Light
Length of Day
Tomorrow will be .
, % of the Moon is Illuminated

Today's Extremes

Country Highs Country Lows

Community

WunderPhotos

Category 6

Welcome to Category 6. This is the collective home for Weather Underground's featured writeups by Dr. Jeff Masters (right), Bob Henson (left), Chris Burt, and other regular contributors.

Nearby

Air Quality

  Air Quality AQ Index Pollutant
Not available.

Snow Depth

Station Depth Elevation

Earthquake Activity

City Distance Mag. Time & Date
Minimum magnitude displayed is 2.5.

Coastal Water Temperatures

Place Temperature

Stations

Nearby Weather Stations

Station Location Temp. Windchill Dew Point Humidity Wind Precip. Elev Updated Type